sensor_id;sensor_type;location;lat;lon;timestamp;P1;durP1;ratioP1;P2;durP2;ratioP2
7215;SDS011;3649;48.798;9.798;2023-02-10T00:01:11;35.23;;;23.03;;
7215;SDS011;3649;48.798;9.798;2023-02-10T00:03:43;32.90;;;21.63;;
7215;SDS011;3649;48.798;9.798;2023-02-10T00:06:11;38.87;;;23.03;;
7215;SDS011;3649;48.798;9.798;2023-02-10T00:08:39;40.87;;;23.23;;
7215;SDS011;3649;48.798;9.798;2023-02-10T00:11:09;40.40;;;22.03;;
7215;SDS011;3649;48.798;9.798;2023-02-10T00:13:37;39.07;;;24.57;;
7215;SDS011;3649;48.798;9.798;2023-02-10T00:16:06;35.97;;;23.30;;
7215;SDS011;3649;48.798;9.798;2023-02-10T00:18:34;34.17;;;21.83;;
7215;SDS011;3649;48.798;9.798;2023-02-10T00:21:19;34.07;;;21.77;;
7215;SDS011;3649;48.798;9.798;2023-02-10T00:23:45;37.90;;;21.37;;
7215;SDS011;3649;48.798;9.798;2023-02-10T00:26:12;33.87;;;22.70;;
7215;SDS011;3649;48.798;9.798;2023-02-10T00:28:40;34.53;;;21.57;;
7215;SDS011;3649;48.798;9.798;2023-02-10T00:31:08;34.60;;;22.97;;
7215;SDS011;3649;48.798;9.798;2023-02-10T00:33:36;41.33;;;22.23;;
7215;SDS011;3649;48.798;9.798;2023-02-10T00:36:06;36.30;;;22.87;;
7215;SDS011;3649;48.798;9.798;2023-02-10T00:38:34;46.37;;;22.57;;
7215;SDS011;3649;48.798;9.798;2023-02-10T00:41:05;43.93;;;24.13;;
7215;SDS011;3649;48.798;9.798;2023-02-10T00:43:33;34.43;;;22.77;;
7215;SDS011;3649;48.798;9.798;2023-02-10T00:46:00;28.90;;;19.90;;
7215;SDS011;3649;48.798;9.798;2023-02-10T00:48:27;33.03;;;21.33;;
7215;SDS011;3649;48.798;9.798;2023-02-10T00:50:54;31.90;;;21.80;;
7215;SDS011;3649;48.798;9.798;2023-02-10T00:53:21;29.77;;;19.53;;
7215;SDS011;3649;48.798;9.798;2023-02-10T00:55:47;39.70;;;23.57;;
7215;SDS011;3649;48.798;9.798;2023-02-10T00:58:14;34.93;;;22.43;;
7215;SDS011;3649;48.798;9.798;2023-02-10T01:00:41;39.83;;;23.73;;
7215;SDS011;3649;48.798;9.798;2023-02-10T01:03:08;45.23;;;26.87;;
7215;SDS011;3649;48.798;9.798;2023-02-10T01:05:35;42.87;;;23.97;;
7215;SDS011;3649;48.798;9.798;2023-02-10T01:08:02;42.53;;;25.97;;
7215;SDS011;3649;48.798;9.798;2023-02-10T01:10:29;39.40;;;23.17;;
7215;SDS011;3649;48.798;9.798;2023-02-10T01:13:01;40.93;;;24.70;;
7215;SDS011;3649;48.798;9.798;2023-02-10T01:15:29;39.93;;;23.97;;
7215;SDS011;3649;48.798;9.798;2023-02-10T01:17:56;39.80;;;24.47;;
7215;SDS011;3649;48.798;9.798;2023-02-10T01:20:23;38.10;;;23.20;;
7215;SDS011;3649;48.798;9.798;2023-02-10T01:22:50;38.80;;;23.90;;
7215;SDS011;3649;48.798;9.798;2023-02-10T01:25:17;35.13;;;21.50;;
7215;SDS011;3649;48.798;9.798;2023-02-10T01:27:44;35.20;;;21.97;;
7215;SDS011;3649;48.798;9.798;2023-02-10T01:30:11;35.63;;;23.00;;
7215;SDS011;3649;48.798;9.798;2023-02-10T01:32:38;35.77;;;22.03;;
7215;SDS011;3649;48.798;9.798;2023-02-10T01:35:05;36.10;;;22.13;;
7215;SDS011;3649;48.798;9.798;2023-02-10T01:37:32;35.43;;;22.27;;
7215;SDS011;3649;48.798;9.798;2023-02-10T01:40:00;32.90;;;22.03;;
7215;SDS011;3649;48.798;9.798;2023-02-10T01:42:26;34.17;;;21.67;;
7215;SDS011;3649;48.798;9.798;2023-02-10T01:47:20;37.27;;;21.23;;
7215;SDS011;3649;48.798;9.798;2023-02-10T01:49:48;39.60;;;24.03;;
7215;SDS011;3649;48.798;9.798;2023-02-10T01:52:22;38.43;;;22.63;;
7215;SDS011;3649;48.798;9.798;2023-02-10T01:54:56;36.73;;;22.70;;
7215;SDS011;3649;48.798;9.798;2023-02-10T01:57:33;36.20;;;22.20;;
7215;SDS011;3649;48.798;9.798;2023-02-10T02:00:02;33.20;;;20.07;;
7215;SDS011;3649;48.798;9.798;2023-02-10T02:02:30;36.17;;;22.03;;
7215;SDS011;3649;48.798;9.798;2023-02-10T02:05:02;36.40;;;22.27;;
7215;SDS011;3649;48.798;9.798;2023-02-10T02:07:32;32.40;;;22.23;;
7215;SDS011;3649;48.798;9.798;2023-02-10T02:10:03;34.73;;;21.00;;
7215;SDS011;3649;48.798;9.798;2023-02-10T02:12:37;28.03;;;20.03;;
7215;SDS011;3649;48.798;9.798;2023-02-10T02:15:21;35.00;;;21.80;;
7215;SDS011;3649;48.798;9.798;2023-02-10T02:21:17;35.90;;;21.03;;
7215;SDS011;3649;48.798;9.798;2023-02-10T02:32:33;34.20;;;20.60;;
7215;SDS011;3649;48.798;9.798;2023-02-10T02:35:15;35.97;;;23.20;;
7215;SDS011;3649;48.798;9.798;2023-02-10T02:37:46;37.10;;;23.33;;
7215;SDS011;3649;48.798;9.798;2023-02-10T02:40:14;35.50;;;23.47;;
7215;SDS011;3649;48.798;9.798;2023-02-10T02:42:42;43.03;;;24.20;;
7215;SDS011;3649;48.798;9.798;2023-02-10T02:51:04;35.67;;;22.70;;
7215;SDS011;3649;48.798;9.798;2023-02-10T02:53:57;34.37;;;20.57;;
7215;SDS011;3649;48.798;9.798;2023-02-10T02:58:59;31.63;;;20.67;;
7215;SDS011;3649;48.798;9.798;2023-02-10T03:01:35;31.80;;;21.03;;
7215;SDS011;3649;48.798;9.798;2023-02-10T03:04:10;32.20;;;20.60;;
7215;SDS011;3649;48.798;9.798;2023-02-10T03:06:39;33.87;;;20.40;;
7215;SDS011;3649;48.798;9.798;2023-02-10T03:09:07;35.80;;;22.13;;
7215;SDS011;3649;48.798;9.798;2023-02-10T03:11:34;35.53;;;22.03;;
7215;SDS011;3649;48.798;9.798;2023-02-10T03:14:01;31.70;;;20.47;;
7215;SDS011;3649;48.798;9.798;2023-02-10T03:16:28;35.33;;;20.80;;
7215;SDS011;3649;48.798;9.798;2023-02-10T03:18:54;35.27;;;21.43;;
7215;SDS011;3649;48.798;9.798;2023-02-10T03:21:21;29.63;;;19.97;;
7215;SDS011;3649;48.798;9.798;2023-02-10T03:23:48;33.77;;;21.73;;
7215;SDS011;3649;48.798;9.798;2023-02-10T03:26:15;32.23;;;20.83;;
7215;SDS011;3649;48.798;9.798;2023-02-10T03:28:41;33.10;;;20.97;;
7215;SDS011;3649;48.798;9.798;2023-02-10T03:31:08;35.43;;;21.70;;
7215;SDS011;3649;48.798;9.798;2023-02-10T03:33:35;30.30;;;19.90;;
7215;SDS011;3649;48.798;9.798;2023-02-10T03:36:02;29.53;;;19.83;;
7215;SDS011;3649;48.798;9.798;2023-02-10T03:38:30;32.30;;;19.03;;
7215;SDS011;3649;48.798;9.798;2023-02-10T03:40:57;28.93;;;19.30;;
7215;SDS011;3649;48.798;9.798;2023-02-10T03:43:23;36.53;;;20.47;;
7215;SDS011;3649;48.798;9.798;2023-02-10T03:45:50;32.87;;;19.37;;
7215;SDS011;3649;48.798;9.798;2023-02-10T03:48:17;32.97;;;20.23;;
7215;SDS011;3649;48.798;9.798;2023-02-10T03:50:44;29.50;;;20.13;;
7215;SDS011;3649;48.798;9.798;2023-02-10T03:53:11;36.77;;;22.30;;
7215;SDS011;3649;48.798;9.798;2023-02-10T03:55:38;32.53;;;20.73;;
7215;SDS011;3649;48.798;9.798;2023-02-10T03:58:05;36.23;;;23.67;;
7215;SDS011;3649;48.798;9.798;2023-02-10T04:00:32;33.97;;;22.03;;
7215;SDS011;3649;48.798;9.798;2023-02-10T04:02:58;32.80;;;21.97;;
7215;SDS011;3649;48.798;9.798;2023-02-10T04:05:25;30.43;;;20.20;;
7215;SDS011;3649;48.798;9.798;2023-02-10T04:07:52;33.53;;;21.33;;
7215;SDS011;3649;48.798;9.798;2023-02-10T04:10:19;37.17;;;23.07;;
7215;SDS011;3649;48.798;9.798;2023-02-10T04:12:47;35.83;;;21.20;;
7215;SDS011;3649;48.798;9.798;2023-02-10T04:15:14;33.33;;;22.10;;
7215;SDS011;3649;48.798;9.798;2023-02-10T04:17:41;36.90;;;22.47;;
7215;SDS011;3649;48.798;9.798;2023-02-10T04:20:08;33.53;;;21.07;;
7215;SDS011;3649;48.798;9.798;2023-02-10T04:22:35;37.67;;;21.67;;
7215;SDS011;3649;48.798;9.798;2023-02-10T04:25:02;37.20;;;21.80;;
7215;SDS011;3649;48.798;9.798;2023-02-10T04:27:29;34.20;;;20.90;;
7215;SDS011;3649;48.798;9.798;2023-02-10T04:29:56;30.77;;;19.53;;
7215;SDS011;3649;48.798;9.798;2023-02-10T04:32:22;33.17;;;20.03;;
7215;SDS011;3649;48.798;9.798;2023-02-10T04:34:49;36.47;;;21.43;;
7215;SDS011;3649;48.798;9.798;2023-02-10T04:37:16;33.90;;;21.83;;
7215;SDS011;3649;48.798;9.798;2023-02-10T04:39:43;36.73;;;22.07;;
7215;SDS011;3649;48.798;9.798;2023-02-10T04:42:10;31.50;;;21.00;;
7215;SDS011;3649;48.798;9.798;2023-02-10T04:44:38;35.17;;;22.63;;
7215;SDS011;3649;48.798;9.798;2023-02-10T04:47:04;32.37;;;22.00;;
7215;SDS011;3649;48.798;9.798;2023-02-10T04:49:31;31.97;;;19.90;;
7215;SDS011;3649;48.798;9.798;2023-02-10T04:51:58;35.53;;;21.20;;
7215;SDS011;3649;48.798;9.798;2023-02-10T04:54:25;37.20;;;21.87;;
7215;SDS011;3649;48.798;9.798;2023-02-10T04:56:52;41.03;;;21.93;;
7215;SDS011;3649;48.798;9.798;2023-02-10T04:59:18;35.77;;;20.10;;
7215;SDS011;3649;48.798;9.798;2023-02-10T05:01:45;36.33;;;20.60;;
7215;SDS011;3649;48.798;9.798;2023-02-10T05:04:12;36.30;;;20.67;;
7215;SDS011;3649;48.798;9.798;2023-02-10T05:06:39;34.93;;;21.13;;
7215;SDS011;3649;48.798;9.798;2023-02-10T05:09:06;33.50;;;21.93;;
7215;SDS011;3649;48.798;9.798;2023-02-10T05:11:33;33.00;;;20.50;;
7215;SDS011;3649;48.798;9.798;2023-02-10T05:14:00;34.20;;;20.40;;
7215;SDS011;3649;48.798;9.798;2023-02-10T05:16:26;34.20;;;22.13;;
7215;SDS011;3649;48.798;9.798;2023-02-10T05:18:53;29.83;;;19.53;;
7215;SDS011;3649;48.798;9.798;2023-02-10T05:21:20;32.40;;;20.67;;
7215;SDS011;3649;48.798;9.798;2023-02-10T05:23:47;33.37;;;19.97;;
7215;SDS011;3649;48.798;9.798;2023-02-10T05:26:14;31.43;;;20.20;;
7215;SDS011;3649;48.798;9.798;2023-02-10T05:28:41;30.23;;;20.33;;
7215;SDS011;3649;48.798;9.798;2023-02-10T05:31:13;32.23;;;21.17;;
7215;SDS011;3649;48.798;9.798;2023-02-10T05:33:40;33.50;;;20.70;;
7215;SDS011;3649;48.798;9.798;2023-02-10T05:36:07;30.20;;;19.33;;
7215;SDS011;3649;48.798;9.798;2023-02-10T05:38:34;33.13;;;21.20;;
7215;SDS011;3649;48.798;9.798;2023-02-10T05:41:01;32.30;;;19.47;;
7215;SDS011;3649;48.798;9.798;2023-02-10T05:43:28;29.80;;;19.43;;
7215;SDS011;3649;48.798;9.798;2023-02-10T05:45:55;32.27;;;19.67;;
7215;SDS011;3649;48.798;9.798;2023-02-10T05:48:22;28.13;;;18.37;;
7215;SDS011;3649;48.798;9.798;2023-02-10T05:50:50;29.17;;;18.50;;
7215;SDS011;3649;48.798;9.798;2023-02-10T05:53:18;29.57;;;19.13;;
7215;SDS011;3649;48.798;9.798;2023-02-10T05:55:45;33.97;;;19.50;;
7215;SDS011;3649;48.798;9.798;2023-02-10T05:58:12;31.53;;;19.77;;
7215;SDS011;3649;48.798;9.798;2023-02-10T06:00:39;33.67;;;20.60;;
7215;SDS011;3649;48.798;9.798;2023-02-10T06:03:06;29.80;;;19.17;;
7215;SDS011;3649;48.798;9.798;2023-02-10T06:05:34;33.97;;;20.93;;
7215;SDS011;3649;48.798;9.798;2023-02-10T06:08:01;33.63;;;20.47;;
7215;SDS011;3649;48.798;9.798;2023-02-10T06:10:28;32.93;;;20.00;;
7215;SDS011;3649;48.798;9.798;2023-02-10T06:12:55;32.77;;;20.20;;
7215;SDS011;3649;48.798;9.798;2023-02-10T06:15:22;31.07;;;18.53;;
7215;SDS011;3649;48.798;9.798;2023-02-10T06:17:48;32.63;;;19.87;;
7215;SDS011;3649;48.798;9.798;2023-02-10T06:20:15;32.63;;;21.00;;
7215;SDS011;3649;48.798;9.798;2023-02-10T06:22:42;32.10;;;20.10;;
7215;SDS011;3649;48.798;9.798;2023-02-10T06:25:09;34.20;;;19.90;;
7215;SDS011;3649;48.798;9.798;2023-02-10T06:27:35;32.43;;;20.37;;
7215;SDS011;3649;48.798;9.798;2023-02-10T06:30:02;34.27;;;22.47;;
7215;SDS011;3649;48.798;9.798;2023-02-10T06:32:29;37.73;;;20.47;;
7215;SDS011;3649;48.798;9.798;2023-02-10T06:34:56;34.33;;;20.53;;
7215;SDS011;3649;48.798;9.798;2023-02-10T06:37:23;34.03;;;20.50;;
7215;SDS011;3649;48.798;9.798;2023-02-10T06:39:50;29.40;;;19.57;;
7215;SDS011;3649;48.798;9.798;2023-02-10T06:42:17;37.80;;;22.83;;
7215;SDS011;3649;48.798;9.798;2023-02-10T06:44:44;36.77;;;21.60;;
7215;SDS011;3649;48.798;9.798;2023-02-10T06:47:10;31.90;;;20.20;;
7215;SDS011;3649;48.798;9.798;2023-02-10T06:49:37;36.33;;;22.10;;
7215;SDS011;3649;48.798;9.798;2023-02-10T06:52:04;29.97;;;20.70;;
7215;SDS011;3649;48.798;9.798;2023-02-10T06:54:41;33.90;;;20.80;;
7215;SDS011;3649;48.798;9.798;2023-02-10T06:57:08;31.90;;;20.27;;
7215;SDS011;3649;48.798;9.798;2023-02-10T06:59:35;33.27;;;20.83;;
7215;SDS011;3649;48.798;9.798;2023-02-10T07:02:02;31.90;;;21.30;;
7215;SDS011;3649;48.798;9.798;2023-02-10T07:04:30;35.57;;;21.93;;
7215;SDS011;3649;48.798;9.798;2023-02-10T07:06:57;35.90;;;21.53;;
7215;SDS011;3649;48.798;9.798;2023-02-10T07:09:24;33.13;;;21.93;;
7215;SDS011;3649;48.798;9.798;2023-02-10T07:11:51;33.87;;;21.30;;
7215;SDS011;3649;48.798;9.798;2023-02-10T07:14:18;40.33;;;22.07;;
7215;SDS011;3649;48.798;9.798;2023-02-10T07:16:45;38.37;;;21.57;;
7215;SDS011;3649;48.798;9.798;2023-02-10T07:19:13;37.10;;;23.47;;
7215;SDS011;3649;48.798;9.798;2023-02-10T07:21:40;40.73;;;23.07;;
7215;SDS011;3649;48.798;9.798;2023-02-10T07:24:07;38.97;;;23.03;;
7215;SDS011;3649;48.798;9.798;2023-02-10T07:26:34;38.67;;;22.10;;
7215;SDS011;3649;48.798;9.798;2023-02-10T07:29:01;37.23;;;22.47;;
7215;SDS011;3649;48.798;9.798;2023-02-10T07:31:28;36.80;;;22.50;;
7215;SDS011;3649;48.798;9.798;2023-02-10T07:33:55;34.17;;;21.20;;
7215;SDS011;3649;48.798;9.798;2023-02-10T07:36:22;35.23;;;22.57;;
7215;SDS011;3649;48.798;9.798;2023-02-10T07:38:49;42.40;;;22.57;;
7215;SDS011;3649;48.798;9.798;2023-02-10T07:41:16;49.27;;;23.57;;
7215;SDS011;3649;48.798;9.798;2023-02-10T07:43:43;36.13;;;22.33;;
7215;SDS011;3649;48.798;9.798;2023-02-10T07:46:09;42.23;;;24.10;;
7215;SDS011;3649;48.798;9.798;2023-02-10T07:48:36;40.93;;;25.17;;
7215;SDS011;3649;48.798;9.798;2023-02-10T07:51:04;38.43;;;24.17;;
7215;SDS011;3649;48.798;9.798;2023-02-10T07:53:31;43.80;;;26.03;;
7215;SDS011;3649;48.798;9.798;2023-02-10T07:55:59;38.57;;;24.27;;
7215;SDS011;3649;48.798;9.798;2023-02-10T07:58:26;35.73;;;23.30;;
7215;SDS011;3649;48.798;9.798;2023-02-10T08:00:53;38.73;;;24.07;;
7215;SDS011;3649;48.798;9.798;2023-02-10T08:03:20;41.27;;;23.47;;
7215;SDS011;3649;48.798;9.798;2023-02-10T08:05:46;39.43;;;23.20;;
7215;SDS011;3649;48.798;9.798;2023-02-10T08:08:15;38.20;;;22.67;;
7215;SDS011;3649;48.798;9.798;2023-02-10T08:10:42;37.27;;;22.87;;
7215;SDS011;3649;48.798;9.798;2023-02-10T08:13:09;34.80;;;21.90;;
7215;SDS011;3649;48.798;9.798;2023-02-10T08:15:35;38.03;;;24.03;;
7215;SDS011;3649;48.798;9.798;2023-02-10T08:18:03;35.90;;;22.83;;
7215;SDS011;3649;48.798;9.798;2023-02-10T08:20:29;38.27;;;23.30;;
7215;SDS011;3649;48.798;9.798;2023-02-10T08:22:57;34.30;;;24.07;;
7215;SDS011;3649;48.798;9.798;2023-02-10T08:25:26;36.63;;;23.60;;
7215;SDS011;3649;48.798;9.798;2023-02-10T08:27:53;36.47;;;23.73;;
7215;SDS011;3649;48.798;9.798;2023-02-10T08:30:20;36.10;;;24.63;;
7215;SDS011;3649;48.798;9.798;2023-02-10T08:32:47;43.03;;;24.53;;
7215;SDS011;3649;48.798;9.798;2023-02-10T08:35:15;42.63;;;23.90;;
7215;SDS011;3649;48.798;9.798;2023-02-10T08:37:42;36.97;;;23.67;;
7215;SDS011;3649;48.798;9.798;2023-02-10T08:40:09;39.57;;;25.27;;
7215;SDS011;3649;48.798;9.798;2023-02-10T08:42:36;47.87;;;25.07;;
7215;SDS011;3649;48.798;9.798;2023-02-10T08:45:03;37.20;;;23.30;;
7215;SDS011;3649;48.798;9.798;2023-02-10T08:47:30;39.47;;;24.63;;
7215;SDS011;3649;48.798;9.798;2023-02-10T08:49:58;35.93;;;23.60;;
7215;SDS011;3649;48.798;9.798;2023-02-10T08:52:25;33.23;;;23.77;;
7215;SDS011;3649;48.798;9.798;2023-02-10T08:54:52;34.47;;;23.63;;
7215;SDS011;3649;48.798;9.798;2023-02-10T08:57:19;38.67;;;23.90;;
7215;SDS011;3649;48.798;9.798;2023-02-10T08:59:46;41.97;;;25.80;;
7215;SDS011;3649;48.798;9.798;2023-02-10T09:02:13;39.63;;;24.67;;
7215;SDS011;3649;48.798;9.798;2023-02-10T09:04:40;37.63;;;24.37;;
7215;SDS011;3649;48.798;9.798;2023-02-10T09:07:08;37.70;;;23.97;;
7215;SDS011;3649;48.798;9.798;2023-02-10T09:09:37;39.90;;;24.27;;
7215;SDS011;3649;48.798;9.798;2023-02-10T09:12:05;42.03;;;25.03;;
7215;SDS011;3649;48.798;9.798;2023-02-10T09:14:35;36.33;;;24.50;;
7215;SDS011;3649;48.798;9.798;2023-02-10T09:17:03;38.03;;;25.40;;
7215;SDS011;3649;48.798;9.798;2023-02-10T09:19:30;47.23;;;26.63;;
7215;SDS011;3649;48.798;9.798;2023-02-10T09:21:56;42.10;;;25.50;;
7215;SDS011;3649;48.798;9.798;2023-02-10T09:24:26;42.67;;;27.30;;
7215;SDS011;3649;48.798;9.798;2023-02-10T09:26:53;51.60;;;26.80;;
7215;SDS011;3649;48.798;9.798;2023-02-10T09:29:20;43.30;;;25.57;;
7215;SDS011;3649;48.798;9.798;2023-02-10T09:31:47;45.63;;;28.30;;
7215;SDS011;3649;48.798;9.798;2023-02-10T09:34:14;42.93;;;25.60;;
7215;SDS011;3649;48.798;9.798;2023-02-10T09:36:41;41.47;;;25.73;;
7215;SDS011;3649;48.798;9.798;2023-02-10T09:39:08;36.47;;;24.50;;
7215;SDS011;3649;48.798;9.798;2023-02-10T09:55:20;37.43;;;22.80;;
7215;SDS011;3649;48.798;9.798;2023-02-10T09:57:55;35.40;;;21.63;;
7215;SDS011;3649;48.798;9.798;2023-02-10T10:00:33;35.80;;;20.87;;
7215;SDS011;3649;48.798;9.798;2023-02-10T10:03:04;33.87;;;20.53;;
7215;SDS011;3649;48.798;9.798;2023-02-10T10:05:37;32.13;;;20.87;;
7215;SDS011;3649;48.798;9.798;2023-02-10T10:08:29;37.97;;;21.07;;
7215;SDS011;3649;48.798;9.798;2023-02-10T10:11:04;30.00;;;20.20;;
7215;SDS011;3649;48.798;9.798;2023-02-10T10:13:43;34.23;;;21.97;;
7215;SDS011;3649;48.798;9.798;2023-02-10T10:21:22;34.67;;;21.23;;
7215;SDS011;3649;48.798;9.798;2023-02-10T10:24:01;31.73;;;20.60;;
7215;SDS011;3649;48.798;9.798;2023-02-10T10:34:45;34.47;;;19.40;;
7215;SDS011;3649;48.798;9.798;2023-02-10T10:37:18;30.53;;;19.83;;
7215;SDS011;3649;48.798;9.798;2023-02-10T10:39:51;29.20;;;19.60;;
7215;SDS011;3649;48.798;9.798;2023-02-10T10:42:26;30.23;;;19.53;;
7215;SDS011;3649;48.798;9.798;2023-02-10T10:45:10;29.33;;;20.27;;
7215;SDS011;3649;48.798;9.798;2023-02-10T10:47:51;30.83;;;19.63;;
7215;SDS011;3649;48.798;9.798;2023-02-10T10:50:22;27.20;;;18.00;;
7215;SDS011;3649;48.798;9.798;2023-02-10T10:52:51;28.10;;;18.03;;
7215;SDS011;3649;48.798;9.798;2023-02-10T10:55:34;31.97;;;18.47;;
7215;SDS011;3649;48.798;9.798;2023-02-10T11:01:16;29.23;;;17.17;;
7215;SDS011;3649;48.798;9.798;2023-02-10T11:03:44;22.93;;;16.60;;
7215;SDS011;3649;48.798;9.798;2023-02-10T11:06:14;25.63;;;17.83;;
7215;SDS011;3649;48.798;9.798;2023-02-10T11:08:53;23.57;;;16.13;;
7215;SDS011;3649;48.798;9.798;2023-02-10T11:11:31;28.10;;;17.40;;
7215;SDS011;3649;48.798;9.798;2023-02-10T11:14:18;23.57;;;16.77;;
7215;SDS011;3649;48.798;9.798;2023-02-10T11:16:50;28.33;;;15.50;;
7215;SDS011;3649;48.798;9.798;2023-02-10T11:19:30;26.57;;;17.43;;
7215;SDS011;3649;48.798;9.798;2023-02-10T11:22:15;25.67;;;16.40;;
7215;SDS011;3649;48.798;9.798;2023-02-10T11:24:48;27.17;;;17.63;;
7215;SDS011;3649;48.798;9.798;2023-02-10T11:27:17;24.90;;;16.40;;
7215;SDS011;3649;48.798;9.798;2023-02-10T11:29:48;22.97;;;16.07;;
7215;SDS011;3649;48.798;9.798;2023-02-10T11:32:24;32.60;;;18.93;;
7215;SDS011;3649;48.798;9.798;2023-02-10T11:34:55;27.57;;;17.60;;
7215;SDS011;3649;48.798;9.798;2023-02-10T11:37:37;31.83;;;18.43;;
7215;SDS011;3649;48.798;9.798;2023-02-10T11:40:16;49.20;;;19.50;;
7215;SDS011;3649;48.798;9.798;2023-02-10T11:42:49;55.27;;;20.33;;
7215;SDS011;3649;48.798;9.798;2023-02-10T11:45:19;32.23;;;18.30;;
7215;SDS011;3649;48.798;9.798;2023-02-10T11:47:58;25.67;;;15.67;;
7215;SDS011;3649;48.798;9.798;2023-02-10T11:50:31;27.67;;;17.20;;
7215;SDS011;3649;48.798;9.798;2023-02-10T11:53:00;26.23;;;16.63;;
7215;SDS011;3649;48.798;9.798;2023-02-10T11:55:31;25.37;;;17.63;;
7215;SDS011;3649;48.798;9.798;2023-02-10T12:01:25;22.13;;;16.93;;
7215;SDS011;3649;48.798;9.798;2023-02-10T12:04:03;30.30;;;18.10;;
7215;SDS011;3649;48.798;9.798;2023-02-10T12:12:30;25.43;;;16.93;;
7215;SDS011;3649;48.798;9.798;2023-02-10T12:15:29;23.20;;;17.70;;
7215;SDS011;3649;48.798;9.798;2023-02-10T12:18:09;24.77;;;17.33;;
7215;SDS011;3649;48.798;9.798;2023-02-10T12:20:57;26.20;;;18.53;;
7215;SDS011;3649;48.798;9.798;2023-02-10T12:26:43;26.60;;;16.27;;
7215;SDS011;3649;48.798;9.798;2023-02-10T12:32:03;26.33;;;16.93;;
7215;SDS011;3649;48.798;9.798;2023-02-10T12:37:42;21.90;;;16.10;;
7215;SDS011;3649;48.798;9.798;2023-02-10T12:52:18;25.60;;;15.70;;
7215;SDS011;3649;48.798;9.798;2023-02-10T12:54:57;25.53;;;17.07;;
7215;SDS011;3649;48.798;9.798;2023-02-10T12:57:37;30.20;;;16.03;;
7215;SDS011;3649;48.798;9.798;2023-02-10T13:00:12;25.40;;;15.83;;
7215;SDS011;3649;48.798;9.798;2023-02-10T13:03:03;23.40;;;16.10;;
7215;SDS011;3649;48.798;9.798;2023-02-10T13:05:46;23.97;;;15.57;;
7215;SDS011;3649;48.798;9.798;2023-02-10T13:08:23;22.87;;;16.20;;
7215;SDS011;3649;48.798;9.798;2023-02-10T13:14:03;20.60;;;14.17;;
7215;SDS011;3649;48.798;9.798;2023-02-10T13:16:37;21.13;;;14.93;;
7215;SDS011;3649;48.798;9.798;2023-02-10T13:19:25;22.03;;;14.60;;
7215;SDS011;3649;48.798;9.798;2023-02-10T13:25:25;21.90;;;14.90;;
7215;SDS011;3649;48.798;9.798;2023-02-10T13:33:40;21.63;;;15.17;;
7215;SDS011;3649;48.798;9.798;2023-02-10T13:36:30;22.93;;;13.70;;
7215;SDS011;3649;48.798;9.798;2023-02-10T13:39:02;25.30;;;16.10;;
7215;SDS011;3649;48.798;9.798;2023-02-10T13:41:40;24.77;;;16.40;;
7215;SDS011;3649;48.798;9.798;2023-02-10T13:44:19;22.40;;;15.73;;
7215;SDS011;3649;48.798;9.798;2023-02-10T13:46:58;24.23;;;15.20;;
7215;SDS011;3649;48.798;9.798;2023-02-10T13:52:30;23.90;;;16.13;;
7215;SDS011;3649;48.798;9.798;2023-02-10T13:55:03;21.07;;;16.07;;
7215;SDS011;3649;48.798;9.798;2023-02-10T14:00:43;22.10;;;15.77;;
7215;SDS011;3649;48.798;9.798;2023-02-10T14:05:54;22.10;;;15.43;;
7215;SDS011;3649;48.798;9.798;2023-02-10T14:08:28;24.80;;;15.50;;
7215;SDS011;3649;48.798;9.798;2023-02-10T14:10:56;23.03;;;15.53;;
7215;SDS011;3649;48.798;9.798;2023-02-10T14:13:28;28.80;;;15.73;;
7215;SDS011;3649;48.798;9.798;2023-02-10T14:16:07;23.20;;;16.17;;
7215;SDS011;3649;48.798;9.798;2023-02-10T14:18:42;20.17;;;15.30;;
7215;SDS011;3649;48.798;9.798;2023-02-10T14:21:13;24.10;;;16.93;;
7215;SDS011;3649;48.798;9.798;2023-02-10T14:23:43;24.40;;;15.50;;
7215;SDS011;3649;48.798;9.798;2023-02-10T14:26:22;25.67;;;16.20;;
7215;SDS011;3649;48.798;9.798;2023-02-10T14:28:56;24.27;;;17.00;;
7215;SDS011;3649;48.798;9.798;2023-02-10T14:31:32;26.63;;;16.77;;
7215;SDS011;3649;48.798;9.798;2023-02-10T14:34:04;32.23;;;15.47;;
7215;SDS011;3649;48.798;9.798;2023-02-10T14:39:23;22.93;;;15.93;;
7215;SDS011;3649;48.798;9.798;2023-02-10T14:41:52;20.43;;;15.37;;
7215;SDS011;3649;48.798;9.798;2023-02-10T14:44:23;25.47;;;16.73;;
7215;SDS011;3649;48.798;9.798;2023-02-10T14:46:55;23.57;;;15.83;;
7215;SDS011;3649;48.798;9.798;2023-02-10T14:49:22;27.57;;;16.87;;
7215;SDS011;3649;48.798;9.798;2023-02-10T14:51:49;24.20;;;15.73;;
7215;SDS011;3649;48.798;9.798;2023-02-10T14:54:19;21.13;;;15.43;;
7215;SDS011;3649;48.798;9.798;2023-02-10T14:56:59;22.20;;;15.17;;
7215;SDS011;3649;48.798;9.798;2023-02-10T14:59:28;20.53;;;15.57;;
7215;SDS011;3649;48.798;9.798;2023-02-10T15:02:03;21.87;;;15.80;;
7215;SDS011;3649;48.798;9.798;2023-02-10T15:04:46;28.17;;;16.90;;
7215;SDS011;3649;48.798;9.798;2023-02-10T15:07:19;24.93;;;15.70;;
7215;SDS011;3649;48.798;9.798;2023-02-10T15:09:56;23.10;;;16.10;;
7215;SDS011;3649;48.798;9.798;2023-02-10T15:12:26;22.33;;;14.83;;
7215;SDS011;3649;48.798;9.798;2023-02-10T15:18:00;21.57;;;15.63;;
7215;SDS011;3649;48.798;9.798;2023-02-10T15:20:34;21.80;;;14.57;;
7215;SDS011;3649;48.798;9.798;2023-02-10T15:33:49;25.07;;;16.17;;
7215;SDS011;3649;48.798;9.798;2023-02-10T15:36:29;20.97;;;15.43;;
7215;SDS011;3649;48.798;9.798;2023-02-10T15:39:14;22.00;;;16.00;;
7215;SDS011;3649;48.798;9.798;2023-02-10T15:44:24;20.43;;;15.07;;
7215;SDS011;3649;48.798;9.798;2023-02-10T15:47:12;24.43;;;15.70;;
7215;SDS011;3649;48.798;9.798;2023-02-10T15:49:45;22.33;;;15.17;;
7215;SDS011;3649;48.798;9.798;2023-02-10T15:52:15;23.37;;;16.57;;
7215;SDS011;3649;48.798;9.798;2023-02-10T15:54:46;25.70;;;16.47;;
7215;SDS011;3649;48.798;9.798;2023-02-10T15:57:16;21.13;;;15.03;;
7215;SDS011;3649;48.798;9.798;2023-02-10T15:59:44;23.07;;;15.27;;
7215;SDS011;3649;48.798;9.798;2023-02-10T16:02:13;24.97;;;15.00;;
7215;SDS011;3649;48.798;9.798;2023-02-10T16:04:40;24.20;;;15.23;;
7215;SDS011;3649;48.798;9.798;2023-02-10T16:07:09;25.73;;;15.90;;
7215;SDS011;3649;48.798;9.798;2023-02-10T16:09:43;26.67;;;16.43;;
7215;SDS011;3649;48.798;9.798;2023-02-10T16:12:10;29.10;;;17.30;;
7215;SDS011;3649;48.798;9.798;2023-02-10T16:14:37;27.47;;;16.33;;
7215;SDS011;3649;48.798;9.798;2023-02-10T16:17:04;25.13;;;15.70;;
7215;SDS011;3649;48.798;9.798;2023-02-10T16:19:31;24.47;;;16.33;;
7215;SDS011;3649;48.798;9.798;2023-02-10T16:21:58;27.50;;;17.17;;
7215;SDS011;3649;48.798;9.798;2023-02-10T16:24:26;39.23;;;25.67;;
7215;SDS011;3649;48.798;9.798;2023-02-10T16:26:55;35.60;;;22.23;;
7215;SDS011;3649;48.798;9.798;2023-02-10T16:29:24;33.47;;;19.90;;
7215;SDS011;3649;48.798;9.798;2023-02-10T16:31:52;26.37;;;18.13;;
7215;SDS011;3649;48.798;9.798;2023-02-10T16:34:19;28.37;;;18.60;;
7215;SDS011;3649;48.798;9.798;2023-02-10T16:36:51;33.50;;;19.43;;
7215;SDS011;3649;48.798;9.798;2023-02-10T16:39:19;33.93;;;18.97;;
7215;SDS011;3649;48.798;9.798;2023-02-10T16:41:48;35.03;;;18.43;;
7215;SDS011;3649;48.798;9.798;2023-02-10T16:44:15;32.40;;;20.83;;
7215;SDS011;3649;48.798;9.798;2023-02-10T16:46:42;35.37;;;22.10;;
7215;SDS011;3649;48.798;9.798;2023-02-10T16:49:11;36.67;;;20.17;;
7215;SDS011;3649;48.798;9.798;2023-02-10T16:51:39;42.50;;;21.47;;
7215;SDS011;3649;48.798;9.798;2023-02-10T16:54:06;34.27;;;21.10;;
7215;SDS011;3649;48.798;9.798;2023-02-10T16:56:36;35.50;;;21.83;;
7215;SDS011;3649;48.798;9.798;2023-02-10T16:59:07;37.63;;;20.60;;
7215;SDS011;3649;48.798;9.798;2023-02-10T17:01:37;35.17;;;20.33;;
7215;SDS011;3649;48.798;9.798;2023-02-10T17:04:04;37.80;;;19.93;;
7215;SDS011;3649;48.798;9.798;2023-02-10T17:06:31;30.00;;;19.07;;
7215;SDS011;3649;48.798;9.798;2023-02-10T17:08:59;34.40;;;19.47;;